createdAt,value
2023-04-19T00:02:25.700Z,1.75
2023-04-19T00:04:53.835Z,1.50
2023-04-19T00:07:21.388Z,4.03
2023-04-19T00:09:48.841Z,4.95
2023-04-19T00:12:16.501Z,1.85
2023-04-19T00:14:43.869Z,2.67
2023-04-19T00:17:11.857Z,6.82
2023-04-19T00:19:39.583Z,2.42
2023-04-19T00:22:06.953Z,1.45
2023-04-19T00:24:34.398Z,3.37
2023-04-19T00:27:02.510Z,3.10
2023-04-19T00:29:29.987Z,1.52
2023-04-19T00:31:59.363Z,3.53
2023-04-19T00:34:27.102Z,1.83
2023-04-19T00:36:56.823Z,2.50
2023-04-19T00:39:24.314Z,1.50
2023-04-19T00:41:53.086Z,4.32
2023-04-19T00:44:20.777Z,1.95
2023-04-19T00:46:48.492Z,3.00
2023-04-19T00:49:18.391Z,3.45
2023-04-19T00:51:46.786Z,1.25
2023-04-19T00:54:15.260Z,1.75
2023-04-19T00:56:44.656Z,3.25
2023-04-19T00:59:13.180Z,5.32
2023-04-19T01:01:41.703Z,2.40
2023-04-19T01:04:09.743Z,2.42
2023-04-19T01:06:38.557Z,2.58
2023-04-19T01:09:05.940Z,1.65
2023-04-19T01:11:34.138Z,2.10
2023-04-19T01:14:01.486Z,3.25
2023-04-19T01:16:28.987Z,1.70
2023-04-19T01:18:57.062Z,1.65
2023-04-19T01:21:24.690Z,1.83
2023-04-19T01:23:52.416Z,1.17
2023-04-19T01:26:21.065Z,2.40
2023-04-19T01:28:48.493Z,2.87
2023-04-19T01:31:17.101Z,1.70
2023-04-19T01:33:44.821Z,3.22
2023-04-19T01:36:13.093Z,1.70
2023-04-19T01:38:41.633Z,2.10
2023-04-19T01:41:10.582Z,2.47
2023-04-19T01:43:37.998Z,5.87
2023-04-19T01:46:05.529Z,2.75
2023-04-19T01:48:34.072Z,0.88
2023-04-19T01:51:01.542Z,3.87
2023-04-19T01:53:29.035Z,1.75
2023-04-19T01:55:56.856Z,1.45
2023-04-19T01:58:24.260Z,2.35
2023-04-19T02:00:51.798Z,2.35
2023-04-19T02:03:19.745Z,4.28
2023-04-19T02:05:47.496Z,1.65
2023-04-19T02:08:14.889Z,3.62
2023-04-19T02:10:42.559Z,5.18
2023-04-19T02:13:09.961Z,2.00
2023-04-19T02:15:37.602Z,2.95
2023-04-19T02:18:07.012Z,2.85
2023-04-19T02:20:34.676Z,1.58
2023-04-19T02:23:02.108Z,3.03
2023-04-19T02:25:29.847Z,1.15
2023-04-19T02:27:57.715Z,3.28
2023-04-19T02:30:25.332Z,3.10
2023-04-19T02:32:54.927Z,2.75
2023-04-19T02:35:23.071Z,1.55
2023-04-19T02:37:50.544Z,1.42
2023-04-19T02:40:19.012Z,1.75
2023-04-19T02:42:46.634Z,3.28
2023-04-19T02:45:14.098Z,1.65
2023-04-19T02:47:41.712Z,2.00
2023-04-19T02:50:09.725Z,1.67
2023-04-19T02:52:39.696Z,5.57
2023-04-19T02:55:07.660Z,2.15
2023-04-19T02:57:35.703Z,5.05
2023-04-19T03:00:05.871Z,3.10
2023-04-19T03:02:34.016Z,2.85
2023-04-19T03:05:01.789Z,2.55
2023-04-19T03:07:29.368Z,4.85
2023-04-19T03:09:56.786Z,2.72
2023-04-19T03:12:24.409Z,2.55
2023-04-19T03:14:51.824Z,1.37
2023-04-19T03:17:19.297Z,1.45
2023-04-19T03:19:47.861Z,2.55
2023-04-19T03:22:16.075Z,1.40
2023-04-19T03:24:43.647Z,2.40
2023-04-19T03:27:12.252Z,2.35
2023-04-19T03:29:39.815Z,2.58
2023-04-19T03:32:07.974Z,3.75
2023-04-19T03:34:35.653Z,1.75
2023-04-19T03:37:03.050Z,3.10
2023-04-19T03:39:31.011Z,2.92
2023-04-19T03:41:59.256Z,2.50
2023-04-19T03:44:26.842Z,2.60
2023-04-19T03:46:54.279Z,4.28
2023-04-19T03:49:22.408Z,3.22
2023-04-19T03:51:50.576Z,1.48
2023-04-19T03:54:18.145Z,2.47
2023-04-19T03:56:45.852Z,1.37
2023-04-19T03:59:13.926Z,1.50
2023-04-19T04:01:43.072Z,4.70
2023-04-19T04:04:12.062Z,6.10
2023-04-19T04:06:39.760Z,3.10
2023-04-19T04:09:07.748Z,1.75
2023-04-19T04:11:35.540Z,3.08
2023-04-19T04:14:04.110Z,3.72
2023-04-19T04:16:31.844Z,4.03
2023-04-19T04:18:59.699Z,1.02
2023-04-19T04:21:28.246Z,2.30
2023-04-19T04:23:56.383Z,3.08
2023-04-19T04:26:25.450Z,4.55
2023-04-19T04:28:53.795Z,3.78
2023-04-19T04:31:21.226Z,3.65
2023-04-19T04:33:49.120Z,1.80
2023-04-19T04:36:18.348Z,2.45
2023-04-19T04:38:45.884Z,2.15
2023-04-19T04:41:13.573Z,2.58
2023-04-19T04:43:41.412Z,2.08
2023-04-19T04:46:09.111Z,2.90
2023-04-19T04:48:37.457Z,3.20
2023-04-19T04:51:05.285Z,3.75
2023-04-19T04:53:33.074Z,8.15
2023-04-19T04:56:02.461Z,2.50
2023-04-19T04:58:30.491Z,2.85
2023-04-19T05:00:58.260Z,6.32
2023-04-19T05:03:27.350Z,4.18
2023-04-19T05:05:55.041Z,5.12
2023-04-19T05:08:27.142Z,3.97
2023-04-19T05:10:55.783Z,2.42
2023-04-19T05:13:23.726Z,4.03
2023-04-19T05:15:51.317Z,6.22
2023-04-19T05:18:19.666Z,3.72
2023-04-19T05:20:47.096Z,3.85
2023-04-19T05:23:14.604Z,5.47
2023-04-19T05:25:42.931Z,5.18
2023-04-19T05:28:10.781Z,11.80
2023-04-19T05:30:38.571Z,6.93
2023-04-19T05:33:06.653Z,16.02
2023-04-19T05:35:34.065Z,25.88
2023-04-19T05:38:01.758Z,5.10
2023-04-19T05:40:29.725Z,2.33
2023-04-19T05:42:59.164Z,4.12
2023-04-19T05:45:26.810Z,3.72
2023-04-19T05:47:54.572Z,6.00
2023-04-19T05:50:23.898Z,4.22
2023-04-19T05:52:52.344Z,6.25
2023-04-19T05:55:20.181Z,5.35
2023-04-19T05:57:47.672Z,6.25
2023-04-19T06:00:16.284Z,4.35
2023-04-19T06:02:44.905Z,4.18
2023-04-19T06:05:12.997Z,4.95
2023-04-19T06:07:43.815Z,17.95
2023-04-19T06:10:23.424Z,9.20
2023-04-19T06:12:50.995Z,8.45
2023-04-19T06:15:18.441Z,4.82
2023-04-19T06:17:46.728Z,4.25
2023-04-19T06:20:14.230Z,4.85
2023-04-19T06:22:43.585Z,4.80
2023-04-19T06:25:11.299Z,9.75
2023-04-19T06:27:39.085Z,5.90
2023-04-19T06:30:07.241Z,3.15
2023-04-19T06:32:34.930Z,4.72
2023-04-19T06:35:02.511Z,3.08
2023-04-19T06:37:29.925Z,3.90
2023-04-19T06:39:57.540Z,5.60
2023-04-19T06:42:26.034Z,4.00
2023-04-19T06:44:56.970Z,8.32
2023-04-19T06:47:24.681Z,18.52
2023-04-19T06:49:52.188Z,4.62
2023-04-19T06:52:19.760Z,6.22
2023-04-19T06:54:49.169Z,8.38
2023-04-19T06:57:17.262Z,3.03
2023-04-19T06:59:44.744Z,7.03
2023-04-19T07:02:12.536Z,5.47
2023-04-19T07:04:40.198Z,3.05
2023-04-19T07:07:07.722Z,3.72
2023-04-19T07:09:35.427Z,5.78
2023-04-19T07:12:02.924Z,3.80
2023-04-19T07:14:31.378Z,4.68
2023-04-19T07:16:59.062Z,4.87
2023-04-19T07:19:26.461Z,4.62
2023-04-19T07:21:53.888Z,4.72
2023-04-19T07:24:21.753Z,5.78
2023-04-19T07:26:49.184Z,8.48
2023-04-19T07:29:16.656Z,6.30
2023-04-19T07:31:44.634Z,5.32
2023-04-19T07:34:12.206Z,6.30
2023-04-19T07:36:39.622Z,5.30
2023-04-19T07:39:07.312Z,6.18
2023-04-19T07:41:36.084Z,4.25
2023-04-19T07:44:03.935Z,5.43
2023-04-19T07:46:31.723Z,8.43
2023-04-19T07:48:59.142Z,6.18
2023-04-19T07:51:26.547Z,6.45
2023-04-19T07:53:54.338Z,8.13
2023-04-19T07:56:22.512Z,7.22
2023-04-19T07:59:04.237Z,6.22
2023-04-19T08:01:35.746Z,4.85
2023-04-19T08:04:04.049Z,5.35
2023-04-19T08:06:32.646Z,6.10
2023-04-19T08:09:00.174Z,4.70
2023-04-19T08:11:27.859Z,4.75
2023-04-19T08:14:06.813Z,5.30
2023-04-19T08:17:21.411Z,4.20
2023-04-19T08:19:30.395Z,3.92
2023-04-19T08:21:58.111Z,5.80
2023-04-19T08:24:25.716Z,5.78
2023-04-19T08:26:54.303Z,4.05
2023-04-19T08:29:23.119Z,4.90
2023-04-19T08:31:50.600Z,5.53
2023-04-19T08:34:18.053Z,5.00
2023-04-19T08:36:56.019Z,5.15
2023-04-19T08:39:34.748Z,7.85
2023-04-19T08:42:24.832Z,6.28
2023-04-19T08:45:25.961Z,8.23
2023-04-19T08:47:59.779Z,5.03
2023-04-19T08:50:35.347Z,6.75
2023-04-19T08:53:23.090Z,7.82
2023-04-19T08:56:08.709Z,6.93
2023-04-19T08:58:57.843Z,7.82
2023-04-19T09:01:35.411Z,8.07
2023-04-19T09:04:21.552Z,7.80
2023-04-19T09:06:55.066Z,10.65
2023-04-19T09:11:59.545Z,10.82
2023-04-19T09:14:28.779Z,6.93
2023-04-19T09:17:17.463Z,8.30
2023-04-19T09:19:49.384Z,8.98
2023-04-19T09:22:17.050Z,12.35
2023-04-19T09:27:36.430Z,19.80
2023-04-19T09:30:10.850Z,5.50
2023-04-19T09:32:47.569Z,6.15
2023-04-19T09:35:15.556Z,7.55
2023-04-19T09:40:25.862Z,10.75
2023-04-19T09:43:08.677Z,9.55
2023-04-19T09:45:43.482Z,9.48
2023-04-19T09:48:12.455Z,10.95
2023-04-19T09:51:03.205Z,11.27
2023-04-19T09:53:34.273Z,11.82
2023-04-19T09:56:03.359Z,6.47
2023-04-19T10:01:13.404Z,11.65
2023-04-19T10:03:45.811Z,10.95
2023-04-19T10:06:40.088Z,9.38
2023-04-19T10:09:05.079Z,11.30
2023-04-19T10:11:42.899Z,11.40
2023-04-19T10:14:11.812Z,12.10
2023-04-19T10:16:39.530Z,21.17
2023-04-19T10:19:10.292Z,11.90
2023-04-19T10:21:38.935Z,10.20
2023-04-19T10:24:06.720Z,11.10
2023-04-19T10:27:08.834Z,9.55
2023-04-19T10:29:51.882Z,12.05
2023-04-19T10:32:19.525Z,9.50
2023-04-19T10:34:47.453Z,10.57
2023-04-19T10:37:15.116Z,12.10
2023-04-19T10:39:45.797Z,9.05
2023-04-19T10:42:13.625Z,13.18
2023-04-19T10:44:41.037Z,13.05
2023-04-19T10:47:08.496Z,13.57
2023-04-19T10:49:46.486Z,10.55
2023-04-19T10:52:27.437Z,9.48
2023-04-19T10:54:57.982Z,12.35
2023-04-19T10:57:25.438Z,10.30
2023-04-19T11:00:25.760Z,11.12
2023-04-19T11:02:53.748Z,7.45
2023-04-19T11:05:21.482Z,11.18
2023-04-19T11:07:48.895Z,9.65
2023-04-19T11:10:28.331Z,6.03
2023-04-19T11:12:55.824Z,8.88
2023-04-19T11:15:24.311Z,14.32
2023-04-19T11:18:08.835Z,7.12
2023-04-19T11:20:43.305Z,11.85
2023-04-19T11:23:18.023Z,11.55
2023-04-19T11:25:46.588Z,7.70
2023-04-19T11:28:17.438Z,11.50
2023-04-19T11:30:46.303Z,11.25
2023-04-19T11:33:14.028Z,12.75
2023-04-19T11:35:43.681Z,8.68
2023-04-19T11:38:13.185Z,19.65
2023-04-19T11:40:40.904Z,12.93
2023-04-19T11:43:08.316Z,12.57
2023-04-19T11:45:39.774Z,14.65
2023-04-19T11:48:15.069Z,9.85
2023-04-19T11:50:43.654Z,14.70
2023-04-19T11:53:21.670Z,14.38
2023-04-19T11:55:57.557Z,8.57
2023-04-19T11:58:36.186Z,10.88
2023-04-19T12:01:07.868Z,9.88
2023-04-19T12:03:40.238Z,8.73
2023-04-19T12:06:11.932Z,10.35
2023-04-19T12:08:43.901Z,12.30
2023-04-19T12:11:11.304Z,8.35
2023-04-19T12:13:40.694Z,8.02
2023-04-19T12:16:08.875Z,9.65
2023-04-19T12:18:50.300Z,9.43
2023-04-19T12:21:45.482Z,8.88
2023-04-19T12:24:15.891Z,8.35
2023-04-19T12:26:56.190Z,8.40
2023-04-19T12:29:23.985Z,13.73
2023-04-19T12:31:51.823Z,12.18
2023-04-19T12:34:19.312Z,8.60
2023-04-19T12:36:46.691Z,11.50
2023-04-19T12:39:14.562Z,10.65
2023-04-19T12:41:42.265Z,7.68
2023-04-19T12:44:09.716Z,7.78
2023-04-19T12:46:37.504Z,10.63
2023-04-19T12:49:04.965Z,12.05
2023-04-19T12:51:32.838Z,9.13
2023-04-19T12:54:02.373Z,7.65
2023-04-19T12:56:29.792Z,9.15
2023-04-19T12:58:57.249Z,6.30
2023-04-19T13:01:24.950Z,8.23
2023-04-19T13:03:52.673Z,6.50
2023-04-19T13:06:21.169Z,9.60
2023-04-19T13:08:48.857Z,11.98
2023-04-19T13:11:22.794Z,9.35
2023-04-19T13:13:52.005Z,6.10
2023-04-19T13:16:19.953Z,6.97
2023-04-19T13:18:47.429Z,9.27
2023-04-19T13:21:15.370Z,10.10
2023-04-19T13:23:44.383Z,7.75
2023-04-19T13:26:12.473Z,10.90
2023-04-19T13:28:41.672Z,8.88
2023-04-19T13:31:09.387Z,9.10
2023-04-19T13:33:36.935Z,9.68
2023-04-19T13:36:04.954Z,9.52
2023-04-19T13:38:32.364Z,12.55
2023-04-19T13:41:00.331Z,8.75
2023-04-19T13:43:27.979Z,8.05
2023-04-19T13:45:55.480Z,10.75
2023-04-19T13:48:22.967Z,17.62
2023-04-19T13:50:52.453Z,7.55
2023-04-19T13:53:19.844Z,8.73
2023-04-19T13:55:47.284Z,10.20
2023-04-19T13:58:14.976Z,9.00
2023-04-19T14:00:42.414Z,11.57
2023-04-19T14:03:10.504Z,14.82
2023-04-19T14:05:38.042Z,5.57
2023-04-19T14:08:05.597Z,10.77
2023-04-19T14:10:34.462Z,11.65
2023-04-19T14:13:02.017Z,12.07
2023-04-19T14:15:29.577Z,8.27
2023-04-19T14:17:57.351Z,10.88
2023-04-19T14:20:24.796Z,11.73
2023-04-19T14:22:52.390Z,7.87
2023-04-19T14:25:20.334Z,6.95
2023-04-19T14:27:47.967Z,8.20
2023-04-19T14:30:15.640Z,6.00
2023-04-19T14:32:43.424Z,9.95
2023-04-19T14:35:11.362Z,10.43
2023-04-19T14:37:38.845Z,11.73
2023-04-19T14:40:07.260Z,7.47
2023-04-19T14:42:34.822Z,4.70
2023-04-19T14:45:02.278Z,8.07
2023-04-19T14:47:30.428Z,8.90
2023-04-19T14:49:58.290Z,10.55
2023-04-19T14:52:26.192Z,9.55
2023-04-19T14:54:54.229Z,7.28
2023-04-19T14:57:21.650Z,5.47
2023-04-19T14:59:49.125Z,4.75
2023-04-19T15:02:16.957Z,8.13
2023-04-19T15:04:44.643Z,8.02
2023-04-19T15:07:12.218Z,7.53
2023-04-19T15:09:40.867Z,15.48
2023-04-19T15:12:08.485Z,7.87
2023-04-19T15:14:35.947Z,8.13
2023-04-19T15:17:04.063Z,8.27
2023-04-19T15:19:31.611Z,9.43
2023-04-19T15:21:59.080Z,10.98
2023-04-19T15:24:26.861Z,11.82
2023-04-19T15:26:54.466Z,13.88
2023-04-19T15:29:21.894Z,6.30
2023-04-19T15:31:49.705Z,5.80
2023-04-19T15:34:17.292Z,5.90
2023-04-19T15:36:44.948Z,7.20
2023-04-19T15:39:12.708Z,5.80
2023-04-19T15:41:40.165Z,7.70
2023-04-19T15:44:07.621Z,6.37
2023-04-19T15:46:35.760Z,7.90
2023-04-19T15:49:03.937Z,7.87
2023-04-19T15:51:31.661Z,4.80
2023-04-19T15:53:59.363Z,5.95
2023-04-19T15:56:26.803Z,4.75
2023-04-19T15:58:54.224Z,6.25
2023-04-19T16:01:23.296Z,5.12
2023-04-19T16:03:51.199Z,4.07
2023-04-19T16:06:18.687Z,5.12
2023-04-19T16:08:46.228Z,4.55
2023-04-19T16:11:14.055Z,11.65
2023-04-19T16:13:41.435Z,6.45
2023-04-19T16:16:08.949Z,4.00
2023-04-19T16:18:36.772Z,3.05
2023-04-19T16:21:04.316Z,7.25
2023-04-19T16:23:31.738Z,5.68
2023-04-19T16:25:59.413Z,4.00
2023-04-19T16:28:26.904Z,5.97
2023-04-19T16:30:54.291Z,5.53
2023-04-19T16:33:21.959Z,4.90
2023-04-19T16:35:49.597Z,4.70
2023-04-19T16:38:17.015Z,4.37
2023-04-19T16:40:47.755Z,3.03
2023-04-19T16:43:15.438Z,7.32
2023-04-19T16:45:42.995Z,4.68
2023-04-19T16:48:10.972Z,4.30
2023-04-19T16:50:38.567Z,4.90
2023-04-19T16:53:06.023Z,3.40
2023-04-19T16:55:33.677Z,3.10
2023-04-19T16:58:01.159Z,4.28
2023-04-19T17:00:28.646Z,2.85
2023-04-19T17:02:56.584Z,6.12
2023-04-19T17:05:24.175Z,4.00
2023-04-19T17:07:52.312Z,2.30
2023-04-19T17:10:20.747Z,6.50
2023-04-19T17:12:48.733Z,4.95
2023-04-19T17:15:16.443Z,3.17
2023-04-19T17:17:44.200Z,3.25
2023-04-19T17:20:11.885Z,5.30
2023-04-19T17:22:39.519Z,3.78
2023-04-19T17:25:07.542Z,5.28
2023-04-19T17:27:34.982Z,10.68
2023-04-19T17:30:02.520Z,4.78
2023-04-19T17:32:30.428Z,9.15
2023-04-19T17:34:58.051Z,4.37
2023-04-19T17:37:25.970Z,7.12
2023-04-19T17:39:53.754Z,7.82
2023-04-19T17:42:21.229Z,4.12
2023-04-19T17:44:48.805Z,4.00
2023-04-19T17:47:17.043Z,3.10
2023-04-19T17:49:45.706Z,4.03
2023-04-19T17:52:13.634Z,5.15
2023-04-19T17:54:41.430Z,6.65
2023-04-19T17:57:09.113Z,4.82
2023-04-19T17:59:36.921Z,2.28
2023-04-19T18:02:04.765Z,4.30
2023-04-19T18:04:32.870Z,3.35
2023-04-19T18:07:00.425Z,7.15
2023-04-19T18:09:28.007Z,4.12
2023-04-19T18:11:56.200Z,5.93
2023-04-19T18:14:23.806Z,4.05
2023-04-19T18:16:51.483Z,3.55
2023-04-19T18:19:19.588Z,5.87
2023-04-19T18:21:47.199Z,11.43
2023-04-19T18:24:15.444Z,4.65
2023-04-19T18:26:43.227Z,5.30
2023-04-19T18:29:12.223Z,3.05
2023-04-19T18:31:39.917Z,3.35
2023-04-19T18:34:07.645Z,2.62
2023-04-19T18:36:35.262Z,2.58
2023-04-19T18:39:02.891Z,1.25
2023-04-19T18:41:30.907Z,5.62
2023-04-19T18:46:29.496Z,4.07
2023-04-19T18:48:57.499Z,4.07
2023-04-19T18:51:26.773Z,4.05
2023-04-19T18:53:54.401Z,5.07
2023-04-19T18:56:36.257Z,4.70
2023-04-19T18:59:09.495Z,4.50
2023-04-19T19:01:37.394Z,4.55
2023-04-19T19:06:36.851Z,10.65
2023-04-19T19:09:04.591Z,4.45
2023-04-19T19:14:03.046Z,3.35
2023-04-19T19:16:31.300Z,4.95
2023-04-19T19:18:59.108Z,4.05
2023-04-19T19:21:29.341Z,2.92
2023-04-19T19:23:57.907Z,5.28
2023-04-19T19:26:26.283Z,3.92
2023-04-19T19:28:54.380Z,3.03
2023-04-19T19:31:22.064Z,8.38
2023-04-19T19:33:58.071Z,3.47
2023-04-19T19:36:37.802Z,8.70
2023-04-19T19:39:05.674Z,5.18
2023-04-19T19:42:03.164Z,3.87
2023-04-19T19:44:20.944Z,2.33
2023-04-19T19:46:48.677Z,3.85
2023-04-19T19:49:16.486Z,2.05
2023-04-19T19:51:57.633Z,4.47
2023-04-19T19:54:26.785Z,4.62
2023-04-19T19:57:16.947Z,4.93
2023-04-19T19:59:49.612Z,3.72
2023-04-19T20:02:22.654Z,2.62
2023-04-19T20:04:50.795Z,5.60
2023-04-19T20:07:37.344Z,2.78
2023-04-19T20:10:10.669Z,2.78
2023-04-19T20:12:42.933Z,5.37
2023-04-19T20:15:11.810Z,3.83
2023-04-19T20:17:40.522Z,4.07
2023-04-19T20:20:09.034Z,3.83
2023-04-19T20:22:37.281Z,4.62
2023-04-19T20:25:05.753Z,3.37
2023-04-19T20:27:33.512Z,2.75
2023-04-19T20:30:01.412Z,4.55
2023-04-19T20:32:28.818Z,4.45
2023-04-19T20:34:56.384Z,5.95
2023-04-19T20:37:24.154Z,9.82
2023-04-19T20:39:52.149Z,5.10
2023-04-19T20:42:19.633Z,6.30
2023-04-19T20:44:47.484Z,4.93
2023-04-19T20:47:14.995Z,3.35
2023-04-19T20:49:42.462Z,3.12
2023-04-19T20:52:10.364Z,4.45
2023-04-19T20:54:38.891Z,6.45
2023-04-19T20:57:07.601Z,8.57
2023-04-19T20:59:35.998Z,3.80
2023-04-19T21:02:03.772Z,3.30
2023-04-19T21:04:31.396Z,2.67
2023-04-19T21:07:00.909Z,6.32
2023-04-19T21:09:28.592Z,6.50
2023-04-19T21:11:55.999Z,7.37
2023-04-19T21:14:23.697Z,4.10
2023-04-19T21:16:51.192Z,3.28
2023-04-19T21:19:18.801Z,5.10
2023-04-19T21:21:46.713Z,3.90
2023-04-19T21:24:14.110Z,5.25
2023-04-19T21:26:41.678Z,3.12
2023-04-19T21:29:09.488Z,3.83
2023-04-19T21:31:36.965Z,4.45
2023-04-19T21:34:04.373Z,1.25
2023-04-19T21:36:32.660Z,3.25
2023-04-19T21:39:00.093Z,2.90
2023-04-19T21:41:27.454Z,6.25
2023-04-19T21:43:55.281Z,4.95
2023-04-19T21:46:22.670Z,3.83
2023-04-19T21:48:50.038Z,3.47
2023-04-19T21:51:17.701Z,5.37
2023-04-19T21:53:45.124Z,4.20
2023-04-19T21:56:12.514Z,4.87
2023-04-19T21:58:40.639Z,4.90
2023-04-19T22:01:08.170Z,4.20
2023-04-19T22:03:36.144Z,2.90
2023-04-19T22:06:03.780Z,8.30
2023-04-19T22:08:32.965Z,4.72
2023-04-19T22:11:01.604Z,3.58
2023-04-19T22:13:30.125Z,4.25
2023-04-19T22:15:57.528Z,4.57
2023-04-19T22:18:25.336Z,5.87
2023-04-19T22:20:53.941Z,6.37
2023-04-19T22:23:21.361Z,3.97
2023-04-19T22:25:49.090Z,2.87
2023-04-19T22:28:16.979Z,6.03
2023-04-19T22:30:44.768Z,5.50
2023-04-19T22:33:12.635Z,3.22
2023-04-19T22:35:40.034Z,3.72
2023-04-19T22:38:07.726Z,4.55
2023-04-19T22:40:35.425Z,8.15
2023-04-19T22:43:02.926Z,2.83
2023-04-19T22:45:30.448Z,2.35
2023-04-19T22:47:58.187Z,6.87
2023-04-19T22:50:25.633Z,6.25
2023-04-19T22:52:53.024Z,13.50
2023-04-19T22:55:20.834Z,3.72
2023-04-19T22:57:48.227Z,4.43
2023-04-19T23:00:16.906Z,4.43
2023-04-19T23:02:44.706Z,3.70
2023-04-19T23:05:12.347Z,6.78
2023-04-19T23:07:42.039Z,3.42
2023-04-19T23:10:10.409Z,4.40
2023-04-19T23:12:38.954Z,5.05
2023-04-19T23:15:07.280Z,6.35
2023-04-19T23:17:35.007Z,3.75
2023-04-19T23:20:02.499Z,4.47
2023-04-19T23:22:29.902Z,2.83
2023-04-19T23:24:57.628Z,5.22
2023-04-19T23:27:24.993Z,8.15
2023-04-19T23:29:52.426Z,2.83
2023-04-19T23:32:20.121Z,8.52
2023-04-19T23:34:47.542Z,5.97
2023-04-19T23:37:14.939Z,2.75
2023-04-19T23:39:42.962Z,8.45
2023-04-19T23:42:10.386Z,4.85
2023-04-19T23:44:38.601Z,3.15
2023-04-19T23:47:06.265Z,3.20
2023-04-19T23:49:33.792Z,3.92
2023-04-19T23:52:02.963Z,4.68
2023-04-19T23:54:30.643Z,4.85
2023-04-19T23:56:58.786Z,2.42
2023-04-19T23:59:29.137Z,4.28
